Time;durP1;ratioP1;P1;durP2;ratioP2;P2;SDS_P1;SDS_P2;PMS_P1;PMS_P2;Temp;Humidity;BMP_temperature;BMP_pressure;BME280_temperature;BME280_humidity;BME280_pressure;Samples;Min_cycle;Max_cycle;Signal;HPM_P1;HPM_P2
2021/04/02 00:00:31;;;;;;;8.40;1.97;;;4.70;91.60;;;;;;4762547;30;20051;-77
2021/04/02 00:02:58;;;;;;;6.90;1.73;;;4.70;91.60;;;;;;4760756;30;20056;-77
2021/04/02 00:05:24;;;;;;;9.83;2.10;;;4.70;92.00;;;;;;4764040;29;20060;-77
2021/04/02 00:07:51;;;;;;;12.47;1.90;;;4.70;91.70;;;;;;4762918;30;20039;-76
2021/04/02 00:10:21;;;;;;;8.70;1.80;;;4.60;91.80;;;;;;4762851;30;20079;-76
2021/04/02 00:12:47;;;;;;;12.73;2.77;;;4.60;91.90;;;;;;4757678;30;20610;-77
2021/04/02 00:15:19;;;;;;;10.77;2.60;;;4.60;91.90;;;;;;4760249;30;20132;-77
2021/04/02 00:17:46;;;;;;;8.53;2.00;;;4.50;92.00;;;;;;4777331;29;20047;-77
2021/04/02 00:20:16;;;;;;;13.70;3.40;;;4.50;92.00;;;;;;4762314;30;20786;-77
2021/04/02 00:22:43;;;;;;;12.03;2.70;;;4.50;92.30;;;;;;4757663;30;20051;-76
2021/04/02 00:25:12;;;;;;;11.20;2.50;;;4.40;92.30;;;;;;4774126;29;20063;-77
2021/04/02 00:27:39;;;;;;;6.50;2.17;;;4.40;92.50;;;;;;4762429;30;20040;-77
2021/04/02 00:30:14;;;;;;;8.70;2.20;;;4.30;92.70;;;;;;4776010;30;20056;-77
2021/04/02 00:32:41;;;;;;;9.47;1.77;;;4.30;92.50;;;;;;4761489;30;20062;-77
2021/04/02 00:35:09;;;;;;;10.40;3.30;;;4.20;92.50;;;;;;4763509;30;20058;-77
2021/04/02 00:37:36;;;;;;;12.77;2.63;;;4.20;92.60;;;;;;4763275;30;20060;-76
2021/04/02 00:40:11;;;;;;;13.57;2.77;;;4.20;92.60;;;;;;4763236;30;20511;-76
2021/04/02 00:42:38;;;;;;;11.47;2.90;;;4.10;92.80;;;;;;4759970;30;20055;-77
2021/04/02 00:45:05;;;;;;;13.60;2.90;;;4.00;93.00;;;;;;4762793;30;20803;-77
2021/04/02 00:47:32;;;;;;;10.43;2.43;;;4.00;93.10;;;;;;4762025;30;20048;-76
2021/04/02 00:49:58;;;;;;;6.70;2.90;;;4.00;93.10;;;;;;4747801;30;20068;-77
2021/04/02 00:52:25;;;;;;;12.47;2.90;;;3.90;93.10;;;;;;4761444;30;20609;-77
2021/04/02 00:54:51;;;;;;;12.40;3.93;;;3.90;93.20;;;;;;4761788;30;20055;-77
2021/04/02 00:57:18;;;;;;;10.13;3.37;;;3.90;93.20;;;;;;4761747;30;20060;-77
2021/04/02 00:59:45;;;;;;;9.90;2.23;;;3.80;93.30;;;;;;4761721;30;20428;-77
2021/04/02 01:02:11;;;;;;;9.53;2.93;;;3.80;93.40;;;;;;4761513;30;20048;-77
2021/04/02 01:04:38;;;;;;;12.03;3.30;;;3.80;93.40;;;;;;4772944;30;20044;-77
2021/04/02 01:07:05;;;;;;;15.03;3.53;;;3.80;93.60;;;;;;4761163;30;20048;-76
2021/04/02 01:09:31;;;;;;;7.73;2.77;;;3.70;93.50;;;;;;4746704;30;20048;-77
2021/04/02 01:11:58;;;;;;;14.00;2.90;;;3.70;93.60;;;;;;4760780;30;20051;-77
2021/04/02 01:14:26;;;;;;;15.67;3.03;;;3.70;93.80;;;;;;4745163;30;20059;-77
2021/04/02 01:16:52;;;;;;;7.40;2.23;;;3.70;93.80;;;;;;4762110;30;20051;-77
2021/04/02 01:19:46;;;;;;;16.43;3.67;;;3.60;93.70;;;;;;4746322;30;20050;-77
2021/04/02 01:22:21;;;;;;;9.30;2.43;;;3.60;93.70;;;;;;4744445;30;20060;-76
2021/04/02 01:25:24;;;;;;;12.93;2.57;;;3.60;93.80;;;;;;4763653;29;20413;-77
2021/04/02 01:28:19;;;;;;;13.77;2.95;;;3.50;93.90;;;;;;4764346;30;20063;-76
2021/04/02 01:30:46;;;;;;;11.00;2.53;;;3.50;93.80;;;;;;4762604;30;20047;-77
2021/04/02 01:33:15;;;;;;;12.97;2.53;;;3.50;93.80;;;;;;4760734;30;20058;-77
2021/04/02 01:35:44;;;;;;;9.30;2.50;;;3.50;93.90;;;;;;4774039;29;20048;-77
2021/04/02 01:38:36;;;;;;;9.30;2.20;;;3.50;93.80;;;;;;4745954;30;20059;-76
2021/04/02 01:41:07;;;;;;;9.13;2.50;;;3.40;93.80;;;;;;4754399;30;20055;-77
2021/04/02 01:43:43;;;;;;;7.25;1.98;;;3.40;93.90;;;;;;4774350;30;20070;-76
2021/04/02 01:46:12;;;;;;;9.10;1.67;;;3.40;93.80;;;;;;4762626;30;20507;-76
2021/04/02 01:48:45;;;;;;;10.10;3.17;;;3.40;94.00;;;;;;4747485;30;20056;-76
2021/04/02 01:51:13;;;;;;;;;;;3.40;93.80;;;;;;4770477;30;20044;-77
2021/04/02 01:53:46;;;;;;;8.37;2.20;;;3.40;93.90;;;;;;4762377;30;19918;-76
2021/04/02 01:56:16;;;;;;;6.87;1.73;;;3.40;94.00;;;;;;4775794;30;20043;-77
2021/04/02 01:58:46;;;;;;;7.53;2.37;;;3.30;93.90;;;;;;4749536;30;20062;-77
2021/04/02 02:01:21;;;;;;;17.30;3.50;;;3.30;93.90;;;;;;4745889;30;20412;-77
2021/04/02 02:03:54;;;;;;;10.90;2.40;;;3.30;94.00;;;;;;4759492;30;20043;-76
2021/04/02 02:06:24;;;;;;;9.37;1.67;;;3.30;94.10;;;;;;4760333;30;20039;-76
2021/04/02 02:09:16;;;;;;;8.23;1.90;;;3.30;94.00;;;;;;4760902;30;20400;-77
2021/04/02 02:11:45;;;;;;;9.40;2.07;;;3.30;94.00;;;;;;4760199;30;20504;-77
2021/04/02 02:14:17;;;;;;;8.70;1.50;;;3.30;94.10;;;;;;4749228;30;20055;-76
2021/04/02 02:16:58;;;;;;;6.93;1.80;;;3.30;94.10;;;;;;4746597;30;20068;-76
2021/04/02 02:19:27;;;;;;;10.63;1.63;;;3.30;94.10;;;;;;4759664;30;20048;-76
2021/04/02 02:21:56;;;;;;;12.23;2.37;;;3.30;94.00;;;;;;4759318;30;20420;-76
2021/04/02 02:24:28;;;;;;;7.50;1.17;;;3.30;94.20;;;;;;4760470;30;20392;-76
2021/04/02 02:26:57;;;;;;;5.13;1.20;;;3.40;94.20;;;;;;4744681;30;20053;-77
2021/04/02 02:29:24;;;;;;;5.67;1.40;;;3.40;94.10;;;;;;4760947;30;20052;-76
2021/04/02 02:31:52;;;;;;;10.13;1.60;;;3.40;94.20;;;;;;4758427;30;20051;-77
2021/04/02 02:34:27;;;;;;;11.03;1.80;;;3.40;94.20;;;;;;4760456;30;20054;-76
2021/04/02 02:36:54;;;;;;;7.67;1.17;;;3.40;94.20;;;;;;4761881;30;20079;-76
2021/04/02 02:39:23;;;;;;;6.43;1.33;;;3.40;94.10;;;;;;4746378;30;20054;-76
2021/04/02 02:41:54;;;;;;;10.00;1.50;;;3.40;94.10;;;;;;4758294;30;20067;-76
2021/04/02 02:44:24;;;;;;;13.43;1.60;;;3.50;94.10;;;;;;4756121;30;20044;-76
2021/04/02 02:46:51;;;;;;;8.33;1.47;;;3.50;94.30;;;;;;4747937;30;20044;-76
2021/04/02 02:49:19;;;;;;;12.57;1.90;;;3.50;94.30;;;;;;4774450;30;20497;-77
2021/04/02 02:51:56;;;;;;;8.17;1.23;;;3.50;94.40;;;;;;4761743;30;20055;-77
2021/04/02 02:54:27;;;;;;;5.27;1.10;;;3.50;94.30;;;;;;4747448;30;20822;-76
2021/04/02 02:56:57;;;;;;;6.60;1.60;;;3.50;94.20;;;;;;4751690;30;20044;-77
2021/04/02 02:59:28;;;;;;;7.40;1.03;;;3.50;94.20;;;;;;4763798;30;20044;-77
2021/04/02 03:01:57;;;;;;;8.43;1.60;;;3.50;94.20;;;;;;4761997;30;20051;-76
2021/04/02 03:04:25;;;;;;;10.80;1.90;;;3.50;94.40;;;;;;4762746;30;20393;-76
2021/04/02 03:06:56;;;;;;;10.27;1.70;;;3.50;94.50;;;;;;4769762;30;20031;-76
2021/04/02 03:09:24;;;;;;;7.93;1.90;;;3.50;94.50;;;;;;4757188;30;20039;-76
2021/04/02 03:11:52;;;;;;;5.27;1.50;;;3.50;94.70;;;;;;4775325;30;20056;-77
2021/04/02 03:14:21;;;;;;;9.83;1.63;;;3.60;95.00;;;;;;4750726;30;20043;-76
2021/04/02 03:16:53;;;;;;;12.10;2.80;;;3.60;94.80;;;;;;4766592;30;20059;-77
2021/04/02 03:19:23;;;;;;;7.40;1.50;;;3.60;94.90;;;;;;4766876;30;20050;-77
2021/04/02 03:21:59;;;;;;;8.80;1.90;;;3.60;95.00;;;;;;4763068;30;20044;-77
2021/04/02 03:24:42;;;;;;;8.43;1.90;;;3.60;95.00;;;;;;4763328;30;20044;-77
2021/04/02 03:27:13;;;;;;;7.65;1.48;;;3.60;95.00;;;;;;4748736;30;20050;-77
2021/04/02 03:29:41;;;;;;;9.13;1.50;;;3.60;95.00;;;;;;4778814;30;20054;-77
2021/04/02 03:32:11;;;;;;;6.13;1.90;;;3.70;95.00;;;;;;4758710;30;20133;-77
2021/04/02 03:34:41;;;;;;;8.43;1.80;;;3.70;95.00;;;;;;4766678;30;20052;-77
2021/04/02 03:37:11;;;;;;;6.60;2.20;;;3.70;95.10;;;;;;4763495;30;20827;-77
2021/04/02 03:39:46;;;;;;;7.90;2.00;;;3.70;95.20;;;;;;4759960;30;20416;-76
2021/04/02 03:42:18;;;;;;;16.93;2.73;;;3.70;95.40;;;;;;4744631;30;20067;-76
2021/04/02 03:44:48;;;;;;;15.27;3.47;;;3.70;95.40;;;;;;4762865;30;20051;-77
2021/04/02 03:47:19;;;;;;;10.93;2.53;;;3.70;95.50;;;;;;4762851;30;20082;-77
2021/04/02 03:49:51;;;;;;;13.30;3.33;;;3.80;95.60;;;;;;4762910;30;20040;-76
2021/04/02 03:52:30;;;;;;;13.63;3.70;;;3.80;95.70;;;;;;4763338;30;20046;-77
2021/04/02 03:55:00;;;;;;;12.23;3.57;;;3.80;95.80;;;;;;4762713;30;20043;-76
2021/04/02 03:57:30;;;;;;;14.43;4.07;;;3.90;96.10;;;;;;4747598;30;20548;-76
2021/04/02 04:00:00;;;;;;;15.53;4.53;;;4.00;96.10;;;;;;4762201;30;20686;-77
2021/04/02 04:02:30;;;;;;;17.53;4.90;;;4.00;96.00;;;;;;4760746;30;20048;-77
2021/04/02 04:05:01;;;;;;;14.90;4.60;;;4.10;96.20;;;;;;4733189;30;20301;-77
2021/04/02 04:07:29;;;;;;;14.40;5.07;;;4.20;96.20;;;;;;4762103;30;20039;-77
2021/04/02 04:09:56;;;;;;;14.87;5.13;;;4.30;96.20;;;;;;4748308;30;20039;-77
2021/04/02 04:12:25;;;;;;;14.93;3.63;;;4.30;96.30;;;;;;4760281;30;20047;-77
2021/04/02 04:14:59;;;;;;;13.93;4.93;;;4.30;96.20;;;;;;4776030;29;20059;-77
2021/04/02 04:17:32;;;;;;;16.83;4.93;;;4.30;96.30;;;;;;4761273;30;20063;-77
2021/04/02 04:20:08;;;;;;;17.30;5.13;;;4.30;96.30;;;;;;4761920;30;20059;-77
2021/04/02 04:22:43;;;;;;;24.07;5.30;;;4.30;96.40;;;;;;4745305;30;20052;-77
2021/04/02 04:25:11;;;;;;;13.83;3.83;;;4.30;96.50;;;;;;4762726;30;20059;-77
2021/04/02 04:27:42;;;;;;;14.13;4.60;;;4.30;96.40;;;;;;4745221;30;20420;-77
2021/04/02 04:30:13;;;;;;;11.30;4.40;;;4.30;96.40;;;;;;4765554;30;20049;-77
2021/04/02 04:32:41;;;;;;;14.93;3.67;;;4.30;96.40;;;;;;4760293;30;20055;-75
2021/04/02 04:35:14;;;;;;;15.70;3.67;;;4.20;96.30;;;;;;4761155;30;20610;-77
2021/04/02 04:37:43;;;;;;;16.83;5.37;;;4.20;96.30;;;;;;4775608;29;20504;-77
2021/04/02 04:40:18;;;;;;;16.67;4.37;;;4.20;96.40;;;;;;4745489;30;20040;-77
2021/04/02 04:42:46;;;;;;;12.97;4.53;;;4.20;96.60;;;;;;4760797;30;20401;-77
2021/04/02 04:45:18;;;;;;;14.73;3.90;;;4.10;96.50;;;;;;4760391;30;20056;-77
2021/04/02 04:47:45;;;;;;;13.73;3.97;;;4.10;96.40;;;;;;4761498;30;20035;-77
2021/04/02 04:50:13;;;;;;;13.93;4.10;;;4.10;96.50;;;;;;4761500;30;20062;-77
2021/04/02 04:53:00;;;;;;;16.47;3.83;;;4.10;96.50;;;;;;4756883;30;20055;-77
2021/04/02 04:55:29;;;;;;;15.17;4.23;;;4.10;96.40;;;;;;4761825;30;20044;-77
2021/04/02 04:57:58;;;;;;;11.23;4.33;;;4.10;96.40;;;;;;4745867;30;20519;-77
2021/04/02 05:00:28;;;;;;;15.27;4.03;;;4.00;96.40;;;;;;4761438;30;20066;-77
2021/04/02 05:02:57;;;;;;;13.87;3.57;;;4.00;96.40;;;;;;4744152;30;20054;-77
2021/04/02 05:05:29;;;;;;;15.57;3.93;;;4.00;96.50;;;;;;4761536;30;20063;-77
2021/04/02 05:07:57;;;;;;;11.93;3.35;;;4.00;96.50;;;;;;4761269;30;20046;-77
2021/04/02 05:10:27;;;;;;;13.07;3.83;;;4.00;96.50;;;;;;4760325;30;20050;-77
2021/04/02 05:12:55;;;;;;;16.57;3.73;;;3.90;96.40;;;;;;4760472;30;20063;-77
2021/04/02 05:15:24;;;;;;;12.20;3.23;;;3.90;96.40;;;;;;4746697;30;20059;-77
2021/04/02 05:17:52;;;;;;;9.13;3.20;;;3.90;96.40;;;;;;4762287;29;20446;-77
2021/04/02 05:20:25;;;;;;;12.30;3.43;;;3.80;96.40;;;;;;4761803;30;20070;-77
2021/04/02 05:22:52;;;;;;;12.57;3.00;;;3.80;96.40;;;;;;4759115;30;20051;-77
2021/04/02 05:25:18;;;;;;;11.40;3.00;;;3.80;96.40;;;;;;4762885;30;20048;-77
2021/04/02 05:27:56;;;;;;;13.30;3.43;;;3.80;96.40;;;;;;4761032;30;20040;-77
2021/04/02 05:30:22;;;;;;;13.17;3.17;;;3.80;96.40;;;;;;4761068;30;20492;-77
2021/04/02 05:32:49;;;;;;;13.27;3.70;;;3.80;96.40;;;;;;4760414;29;20063;-76
2021/04/02 05:35:15;;;;;;;15.23;3.33;;;3.80;96.40;;;;;;4746636;30;20057;-77
2021/04/02 05:37:42;;;;;;;16.73;3.77;;;3.80;96.40;;;;;;4760928;30;20062;-77
2021/04/02 05:40:09;;;;;;;12.13;3.10;;;3.80;96.40;;;;;;4745932;30;20050;-77
2021/04/02 05:42:38;;;;;;;12.30;3.80;;;3.80;96.30;;;;;;4758244;30;20059;-77
2021/04/02 05:45:05;;;;;;;10.47;3.40;;;3.90;96.30;;;;;;4777501;29;20040;-77
2021/04/02 05:47:33;;;;;;;10.77;3.13;;;3.90;96.30;;;;;;4761920;30;20143;-77
2021/04/02 05:50:01;;;;;;;10.90;3.30;;;3.90;96.30;;;;;;4762479;30;20043;-77
2021/04/02 05:52:33;;;;;;;14.67;4.10;;;3.90;96.30;;;;;;4761360;29;20058;-77
2021/04/02 05:55:00;;;;;;;11.75;3.25;;;4.00;96.20;;;;;;4761193;30;20047;-77
2021/04/02 05:57:28;;;;;;;11.90;3.23;;;4.00;96.10;;;;;;4761671;30;20480;-77
2021/04/02 05:59:56;;;;;;;11.70;2.40;;;4.10;96.00;;;;;;4761102;30;20063;-77
2021/04/02 06:02:22;;;;;;;10.23;2.20;;;4.20;96.00;;;;;;4758354;29;20067;-77
2021/04/02 06:04:49;;;;;;;9.17;2.43;;;4.30;95.90;;;;;;4746326;30;20056;-77
2021/04/02 06:07:26;;;;;;;10.93;1.80;;;4.30;95.80;;;;;;4750795;30;20059;-77
2021/04/02 06:09:52;;;;;;;12.03;2.73;;;4.50;95.60;;;;;;4763263;30;20504;-77
2021/04/02 06:12:24;;;;;;;13.73;2.50;;;4.60;95.50;;;;;;4759244;30;20047;-76
2021/04/02 06:14:51;;;;;;;14.68;2.83;;;4.70;95.30;;;;;;4763666;30;20043;-77
2021/04/02 06:17:18;;;;;;;11.80;2.23;;;4.80;95.10;;;;;;4759950;30;20063;-77
2021/04/02 06:19:44;;;;;;;13.77;2.37;;;4.90;94.90;;;;;;4746902;30;20555;-77
2021/04/02 06:22:13;;;;;;;8.73;1.97;;;5.10;94.80;;;;;;4758762;30;20523;-77
2021/04/02 06:24:47;;;;;;;12.03;1.90;;;5.20;94.60;;;;;;4761165;30;20480;-77
2021/04/02 06:27:14;;;;;;;7.60;1.80;;;5.30;94.40;;;;;;4758261;30;20528;-77
2021/04/02 06:29:43;;;;;;;10.47;2.10;;;5.40;94.20;;;;;;4760631;30;20051;-77
2021/04/02 06:32:14;;;;;;;7.93;1.80;;;5.60;93.90;;;;;;4757395;30;20067;-77
2021/04/02 06:34:48;;;;;;;11.37;1.80;;;5.70;93.60;;;;;;4744841;30;20405;-76
2021/04/02 06:37:16;;;;;;;11.53;2.13;;;5.80;93.30;;;;;;4760252;30;20055;-77
2021/04/02 06:39:50;;;;;;;12.30;1.70;;;5.80;93.10;;;;;;4762306;30;20066;-77
2021/04/02 06:42:31;;;;;;;11.67;1.40;;;6.00;93.00;;;;;;4759712;30;20052;-77
2021/04/02 06:45:03;;;;;;;12.33;2.03;;;6.10;92.90;;;;;;4763371;30;20036;-77
2021/04/02 06:47:34;;;;;;;17.80;2.33;;;6.20;92.40;;;;;;4765323;29;20047;-77
2021/04/02 06:50:01;;;;;;;10.07;1.47;;;6.30;92.00;;;;;;4778036;29;20051;-77
2021/04/02 06:52:30;;;;;;;11.97;1.73;;;6.40;91.70;;;;;;4764435;29;20051;-77
2021/04/02 06:54:58;;;;;;;10.83;1.10;;;6.50;91.60;;;;;;4777222;30;20044;-77
2021/04/02 06:57:28;;;;;;;14.93;1.70;;;6.60;91.20;;;;;;4748011;30;20055;-78
2021/04/02 06:59:56;;;;;;;8.83;1.00;;;6.70;91.00;;;;;;4762824;30;20052;-78
2021/04/02 07:02:26;;;;;;;11.77;1.50;;;6.80;90.60;;;;;;4758783;30;20175;-78
2021/04/02 07:04:55;;;;;;;11.47;2.20;;;6.90;90.50;;;;;;4768680;30;20460;-78
2021/04/02 07:07:22;;;;;;;12.10;2.33;;;7.00;90.40;;;;;;4770239;29;20372;-78
2021/04/02 07:09:51;;;;;;;11.17;2.07;;;7.10;89.80;;;;;;4766352;30;20048;-77
2021/04/02 07:12:19;;;;;;;12.17;1.77;;;7.20;89.70;;;;;;4762998;30;20042;-74
2021/04/02 07:14:47;;;;;;;14.10;3.67;;;7.30;88.60;;;;;;4767838;30;20500;-75
2021/04/02 07:17:14;;;;;;;12.40;5.33;;;7.30;87.90;;;;;;4773137;30;20063;-73
2021/04/02 07:19:43;;;;;;;9.60;1.13;;;7.40;87.50;;;;;;4769385;29;20070;-77
2021/04/02 07:22:10;;;;;;;8.57;1.13;;;7.50;87.50;;;;;;4779092;30;20063;-76
2021/04/02 07:24:37;;;;;;;9.87;0.90;;;7.60;87.00;;;;;;4786344;29;20055;-76
2021/04/02 07:27:04;;;;;;;15.53;1.70;;;7.80;86.90;;;;;;4781378;30;20047;-77
2021/04/02 07:29:31;;;;;;;14.53;1.47;;;7.90;86.00;;;;;;4784843;29;20062;-76
2021/04/02 07:31:58;;;;;;;12.80;1.80;;;8.00;84.10;;;;;;4763188;30;20055;-76
2021/04/02 07:34:24;;;;;;;14.87;1.87;;;8.00;82.90;;;;;;4764303;30;20058;-76
2021/04/02 07:36:51;;;;;;;11.10;1.95;;;8.00;82.10;;;;;;4755460;30;20046;-77
2021/04/02 07:39:24;;;;;;;6.33;0.80;;;8.00;82.00;;;;;;4752335;30;20054;-76
2021/04/02 07:41:54;;;;;;;15.83;1.27;;;7.80;82.20;;;;;;4768401;30;20063;-73
2021/04/02 07:44:20;;;;;;;13.70;2.07;;;7.70;81.70;;;;;;4767015;30;20060;-78
2021/04/02 07:47:07;;;;;;;8.17;0.93;;;7.60;81.60;;;;;;4765778;30;20042;-78
2021/04/02 07:49:54;;;;;;;9.00;1.00;;;7.60;82.10;;;;;;4767096;30;20048;-77
2021/04/02 07:52:36;;;;;;;8.80;0.77;;;7.60;82.40;;;;;;4745131;30;20491;-76
2021/04/02 07:55:14;;;;;;;11.35;1.15;;;7.50;82.50;;;;;;4760418;30;20051;-76
2021/04/02 07:57:58;;;;;;;10.37;0.80;;;7.50;82.40;;;;;;4763156;30;20059;-76
2021/04/02 08:00:35;;;;;;;10.60;1.17;;;7.60;82.10;;;;;;4762787;30;20055;-78
2021/04/02 08:03:11;;;;;;;10.23;0.80;;;7.70;81.80;;;;;;4759319;30;20048;-76
2021/04/02 08:05:44;;;;;;;6.63;1.17;;;7.80;81.40;;;;;;4760731;30;20048;-76
2021/04/02 08:08:14;;;;;;;10.13;0.70;;;7.90;80.90;;;;;;4765668;29;20040;-75
2021/04/02 08:11:18;;;;;;;9.00;0.98;;;7.90;80.60;;;;;;4749424;30;20400;-75
2021/04/02 08:13:57;;;;;;;8.15;0.88;;;8.00;80.70;;;;;;4762196;30;20386;-76
2021/04/02 08:16:28;;;;;;;10.88;1.35;;;8.10;79.80;;;;;;4763701;30;20070;-75
2021/04/02 08:19:07;;;;;;;11.10;1.30;;;8.20;79.40;;;;;;4761380;30;20119;-75
2021/04/02 08:21:34;;;;;;;8.63;0.95;;;8.30;78.90;;;;;;4773425;29;20039;-75
2021/04/02 08:24:04;;;;;;;9.30;1.55;;;8.30;77.90;;;;;;4759085;30;20054;-75
2021/04/02 08:26:32;;;;;;;7.47;1.10;;;8.50;77.60;;;;;;4745796;30;20035;-76
2021/04/02 08:28:59;;;;;;;8.57;1.05;;;8.60;77.30;;;;;;4746207;30;20043;-76
2021/04/02 08:31:26;;;;;;;9.88;1.27;;;8.60;76.60;;;;;;4759741;30;20043;-76
2021/04/02 08:33:54;;;;;;;9.77;1.17;;;8.60;76.70;;;;;;4758455;30;20059;-76
2021/04/02 08:36:22;;;;;;;9.10;1.00;;;8.60;76.90;;;;;;4760872;30;20381;-76
2021/04/02 08:38:50;;;;;;;6.78;1.17;;;8.60;76.90;;;;;;4762571;30;20051;-76
2021/04/02 08:41:17;;;;;;;8.35;1.27;;;8.60;76.90;;;;;;4760418;30;20052;-76
2021/04/02 08:43:44;;;;;;;5.43;0.95;;;8.60;76.60;;;;;;4760387;29;20064;-76
2021/04/02 08:46:10;;;;;;;8.70;1.08;;;8.60;76.20;;;;;;4745943;30;20052;-76
2021/04/02 08:48:38;;;;;;;6.57;0.82;;;8.70;75.80;;;;;;4775775;29;20903;-76
2021/04/02 08:51:05;;;;;;;6.70;1.40;;;8.80;75.50;;;;;;4760591;30;20047;-76
2021/04/02 08:53:41;;;;;;;8.35;1.00;;;9.00;74.50;;;;;;4742329;30;20047;-76
2021/04/02 08:56:07;;;;;;;10.65;1.55;;;9.10;73.70;;;;;;4761841;30;20056;-75
2021/04/02 08:58:34;;;;;;;9.77;1.70;;;9.20;73.30;;;;;;4774716;30;20040;-77
2021/04/02 09:01:02;;;;;;;5.03;0.95;;;9.20;72.40;;;;;;4745327;30;20052;-77
2021/04/02 09:03:29;;;;;;;7.78;1.73;;;9.30;73.00;;;;;;4740723;30;20468;-77
2021/04/02 09:05:56;;;;;;;8.27;1.35;;;9.30;73.10;;;;;;4762490;30;20436;-79
2021/04/02 09:08:23;;;;;;;9.43;1.17;;;9.20;72.20;;;;;;4730980;30;20392;-76
2021/04/02 09:10:49;;;;;;;7.88;1.40;;;9.20;71.90;;;;;;4759991;30;20039;-76
2021/04/02 09:13:35;;;;;;;8.23;1.10;;;9.20;71.60;;;;;;4757273;30;20055;-77
2021/04/02 09:16:09;;;;;;;9.30;1.30;;;9.20;71.90;;;;;;4773809;30;20062;-76
2021/04/02 09:18:52;;;;;;;11.32;1.35;;;9.20;71.40;;;;;;4759092;30;20465;-76
2021/04/02 09:21:19;;;;;;;11.38;1.60;;;9.00;71.70;;;;;;4760820;30;21394;-76
2021/04/02 09:23:51;;;;;;;9.32;1.90;;;8.90;72.10;;;;;;4757527;30;20051;-76
2021/04/02 09:26:18;;;;;;;10.63;1.95;;;8.90;72.80;;;;;;4760595;30;20595;-77
2021/04/02 09:28:45;;;;;;;12.27;1.88;;;8.80;72.50;;;;;;4760254;30;20043;-77
2021/04/02 09:31:24;;;;;;;7.88;1.60;;;8.80;73.00;;;;;;4759067;30;20063;-77
2021/04/02 09:33:57;;;;;;;8.38;1.95;;;8.90;73.10;;;;;;4759433;30;20046;-76
2021/04/02 09:36:32;;;;;;;6.78;1.95;;;8.90;73.10;;;;;;4745204;30;20044;-76
2021/04/02 09:39:17;;;;;;;12.15;2.35;;;9.00;72.80;;;;;;4744687;30;20066;-77
2021/04/02 09:41:51;;;;;;;8.13;2.03;;;9.00;73.00;;;;;;4758804;30;20046;-77
2021/04/02 09:44:45;;;;;;;7.80;2.15;;;9.10;72.40;;;;;;4758920;30;20047;-77
2021/04/02 09:47:12;;;;;;;10.82;2.22;;;9.10;72.00;;;;;;4758420;30;20040;-77
2021/04/02 09:49:41;;;;;;;8.20;2.47;;;9.10;71.70;;;;;;4759518;30;20063;-76
2021/04/02 09:52:08;;;;;;;8.15;2.45;;;9.10;71.00;;;;;;4758050;30;20051;-76
2021/04/02 09:54:37;;;;;;;9.38;2.05;;;9.20;70.90;;;;;;4772677;29;20052;-76
2021/04/02 09:57:06;;;;;;;8.80;2.17;;;9.30;70.70;;;;;;4759507;30;20074;-77
2021/04/02 09:59:33;;;;;;;9.02;1.90;;;9.40;69.40;;;;;;4759635;30;20047;-77
2021/04/02 10:02:00;;;;;;;10.93;2.03;;;9.60;69.70;;;;;;4757833;30;20051;-77
2021/04/02 10:04:27;;;;;;;7.22;2.05;;;9.70;68.60;;;;;;4759323;30;20404;-77
2021/04/02 10:06:53;;;;;;;12.05;2.42;;;9.90;68.60;;;;;;4759374;30;20051;-77
2021/04/02 10:09:20;;;;;;;12.73;2.65;;;9.90;67.90;;;;;;4774706;30;20109;-78
2021/04/02 10:11:48;;;;;;;11.90;2.20;;;10.00;67.60;;;;;;4772674;30;20050;-77
2021/04/02 10:14:18;;;;;;;8.07;1.50;;;10.00;68.20;;;;;;4758212;30;20058;-77
2021/04/02 10:16:45;;;;;;;11.30;1.83;;;10.20;68.10;;;;;;4760884;30;20135;-77
2021/04/02 10:19:16;;;;;;;5.95;1.45;;;10.20;67.20;;;;;;4761561;30;20047;-77
2021/04/02 10:21:43;;;;;;;12.00;1.60;;;10.30;67.30;;;;;;4759549;30;20048;-79
2021/04/02 10:24:10;;;;;;;9.68;1.30;;;10.40;66.50;;;;;;4760890;30;20044;-76
2021/04/02 10:26:37;;;;;;;6.70;0.95;;;10.40;66.10;;;;;;4760700;30;20048;-77
2021/04/02 10:29:04;;;;;;;8.18;1.35;;;10.50;66.30;;;;;;4758692;30;20073;-76
2021/04/02 10:31:31;;;;;;;7.93;1.15;;;10.70;65.30;;;;;;4761933;30;20310;-75
2021/04/02 10:33:58;;;;;;;10.18;1.67;;;10.80;64.90;;;;;;4773816;29;20055;-75
2021/04/02 10:36:24;;;;;;;8.70;1.63;;;11.00;64.20;;;;;;4763659;30;20496;-76
2021/04/02 10:38:51;;;;;;;12.85;1.75;;;11.20;64.60;;;;;;4760216;30;20040;-76
2021/04/02 10:41:18;;;;;;;8.48;1.15;;;11.40;61.80;;;;;;4746083;30;20054;-76
2021/04/02 10:43:45;;;;;;;6.10;1.08;;;11.50;61.50;;;;;;4772177;30;20044;-76
2021/04/02 10:46:12;;;;;;;5.72;0.70;;;11.60;61.90;;;;;;4744143;30;20050;-76
2021/04/02 10:48:40;;;;;;;9.82;1.20;;;11.70;61.20;;;;;;4759607;30;20046;-76
2021/04/02 10:51:07;;;;;;;5.43;0.70;;;11.70;61.00;;;;;;4746360;30;20043;-76
2021/04/02 10:53:33;;;;;;;7.82;1.38;;;11.80;61.40;;;;;;4756064;30;20043;-76
2021/04/02 10:56:03;;;;;;;7.72;0.80;;;12.00;61.30;;;;;;4729614;30;20251;-76
2021/04/02 10:58:31;;;;;;;9.65;1.20;;;12.20;59.90;;;;;;4758622;30;20059;-76
2021/04/02 11:00:58;;;;;;;7.68;0.90;;;12.10;59.30;;;;;;4743872;30;20060;-76
2021/04/02 11:03:26;;;;;;;7.47;1.25;;;12.00;59.70;;;;;;4769627;30;20167;-76
2021/04/02 11:05:53;;;;;;;7.20;0.80;;;11.90;59.40;;;;;;4751593;30;20066;-76
2021/04/02 11:08:19;;;;;;;7.50;0.80;;;11.70;59.10;;;;;;4743545;30;20035;-76
2021/04/02 11:10:46;;;;;;;8.38;1.20;;;11.90;60.40;;;;;;4773477;30;20043;-76
2021/04/02 11:13:12;;;;;;;9.93;1.20;;;12.40;59.40;;;;;;4742007;30;20044;-76
2021/04/02 11:15:39;;;;;;;7.60;1.00;;;12.90;55.20;;;;;;4757866;30;20052;-76
2021/04/02 11:18:06;;;;;;;7.05;0.95;;;12.80;55.80;;;;;;4743765;30;20075;-76
2021/04/02 11:20:32;;;;;;;6.18;0.63;;;12.90;55.90;;;;;;4758912;30;20040;-76
2021/04/02 11:22:59;;;;;;;15.90;1.25;;;13.10;55.00;;;;;;4756092;30;20587;-76
2021/04/02 11:25:26;;;;;;;6.78;0.95;;;13.40;55.30;;;;;;4757975;30;20047;-76
2021/04/02 11:27:53;;;;;;;8.80;0.98;;;13.70;54.70;;;;;;4762246;30;20048;-76
2021/04/02 11:30:21;;;;;;;9.35;0.93;;;13.80;53.10;;;;;;4762869;30;20043;-77
2021/04/02 11:32:48;;;;;;;4.13;0.70;;;13.80;52.50;;;;;;4768831;30;20062;-77
2021/04/02 11:35:16;;;;;;;6.63;0.60;;;13.80;53.60;;;;;;4769026;30;20044;-76
2021/04/02 11:37:43;;;;;;;8.02;1.17;;;14.20;51.90;;;;;;4753649;30;20543;-76
2021/04/02 11:40:13;;;;;;;7.15;0.80;;;14.40;50.20;;;;;;4771106;30;20058;-76
2021/04/02 11:42:39;;;;;;;10.25;0.88;;;14.20;50.40;;;;;;4765023;30;20381;-77
2021/04/02 11:45:07;;;;;;;6.13;1.00;;;13.90;51.10;;;;;;4764191;30;20167;-76
2021/04/02 11:47:34;;;;;;;7.72;0.98;;;13.60;51.70;;;;;;4763263;30;21471;-76
2021/04/02 11:50:00;;;;;;;7.97;0.80;;;13.40;52.70;;;;;;4764814;30;20060;-76
2021/04/02 11:52:27;;;;;;;6.55;1.65;;;13.30;53.00;;;;;;4762033;30;20408;-76
2021/04/02 11:54:53;;;;;;;9.50;1.70;;;13.10;53.40;;;;;;4745937;30;20070;-76
2021/04/02 11:57:20;;;;;;;5.53;1.20;;;13.00;53.00;;;;;;4761756;30;20070;-76
2021/04/02 11:59:46;;;;;;;6.68;1.08;;;13.00;54.10;;;;;;4780922;29;20045;-77
2021/04/02 12:02:13;;;;;;;8.90;0.77;;;13.20;53.00;;;;;;4764675;30;20062;-76
2021/04/02 12:04:39;;;;;;;9.57;0.98;;;13.50;52.90;;;;;;4762954;30;20065;-76
2021/04/02 12:07:06;;;;;;;10.20;1.15;;;13.80;52.10;;;;;;4775876;30;20398;-77
2021/04/02 12:09:32;;;;;;;5.85;0.77;;;13.70;51.10;;;;;;4761343;30;20048;-76
2021/04/02 12:11:59;;;;;;;6.82;0.98;;;13.50;51.50;;;;;;4745574;30;20051;-76
2021/04/02 12:14:25;;;;;;;12.70;1.67;;;13.30;52.20;;;;;;4745349;30;20070;-77
2021/04/02 12:16:52;;;;;;;9.57;1.15;;;13.20;53.10;;;;;;4758583;30;20085;-77
2021/04/02 12:19:19;;;;;;;7.57;0.73;;;13.00;53.20;;;;;;4762452;30;20035;-76
2021/04/02 12:21:45;;;;;;;9.18;0.90;;;12.90;53.90;;;;;;4760950;30;20099;-76
2021/04/02 12:24:12;;;;;;;8.32;0.70;;;12.70;54.80;;;;;;4760591;30;20040;-76
2021/04/02 12:26:39;;;;;;;6.18;1.08;;;12.60;55.40;;;;;;4762703;30;20058;-76
2021/04/02 12:29:06;;;;;;;7.07;0.77;;;12.60;55.70;;;;;;4759777;30;20044;-76
2021/04/02 12:31:33;;;;;;;13.55;1.30;;;12.60;55.90;;;;;;4754431;30;20035;-76
2021/04/02 12:34:00;;;;;;;8.10;1.08;;;12.40;56.20;;;;;;4761171;29;20051;-76
2021/04/02 12:36:41;;;;;;;8.52;0.90;;;12.20;56.70;;;;;;4762510;29;20055;-76
2021/04/02 12:39:08;;;;;;;6.32;1.00;;;12.10;56.90;;;;;;4761623;30;20047;-76
2021/04/02 12:41:34;;;;;;;9.43;1.10;;;11.90;56.90;;;;;;4744211;30;20044;-76
2021/04/02 12:44:01;;;;;;;6.20;1.02;;;11.80;57.10;;;;;;4757852;30;20072;-77
2021/04/02 12:46:27;;;;;;;8.73;1.00;;;11.70;57.20;;;;;;4746122;30;20040;-78
2021/04/02 12:48:54;;;;;;;8.75;1.02;;;11.70;57.70;;;;;;4760794;30;20071;-77
2021/04/02 12:51:21;;;;;;;9.85;0.88;;;11.60;57.90;;;;;;4761396;30;20392;-77
2021/04/02 12:53:48;;;;;;;11.93;1.65;;;11.60;58.30;;;;;;4745250;30;20075;-77
2021/04/02 12:56:15;;;;;;;7.90;0.88;;;11.70;58.50;;;;;;4761958;30;20044;-77
2021/04/02 12:58:42;;;;;;;9.32;1.23;;;11.70;58.50;;;;;;4760941;30;20036;-77
2021/04/02 13:01:09;;;;;;;6.80;0.80;;;11.60;58.50;;;;;;4762411;30;20051;-77
2021/04/02 13:03:36;;;;;;;6.57;1.10;;;11.50;58.90;;;;;;4758659;30;20065;-77